Time;durP1;ratioP1;P1;durP2;ratioP2;P2;SDS_P1;SDS_P2;PMS_P1;PMS_P2;Temp;Humidity;BMP_temperature;BMP_pressure;BME280_temperature;BME280_humidity;BME280_pressure;Samples;Min_cycle;Max_cycle;Signal;HPM_P1;HPM_P2
2023/02/18 00:01:00;;;;;;;1.10;0.80;;;;;;;13.43;100.00;101072.75;5056234;28;20450;-53
2023/02/18 00:03:28;;;;;;;1.20;1.20;;;;;;;13.56;100.00;101068.81;5056023;28;20465;-54
2023/02/18 00:05:54;;;;;;;1.30;1.20;;;;;;;13.45;100.00;101066.47;5056246;28;20540;-53
2023/02/18 00:08:22;;;;;;;0.83;0.67;;;;;;;13.44;100.00;101064.72;5055996;28;20511;-54
2023/02/18 00:10:48;;;;;;;0.73;0.50;;;;;;;13.37;100.00;101067.56;5056456;28;20909;-53
2023/02/18 00:13:15;;;;;;;1.47;0.77;;;;;;;13.32;100.00;101059.69;5057611;28;20451;-53
2023/02/18 00:15:41;;;;;;;1.23;0.60;;;;;;;13.30;100.00;101062.41;5056012;28;20478;-53
2023/02/18 00:18:08;;;;;;;2.87;0.60;;;;;;;13.31;100.00;101060.63;5058766;28;20486;-53
2023/02/18 00:20:37;;;;;;;1.23;0.70;;;;;;;13.32;100.00;101057.91;5064387;28;20524;-53
2023/02/18 00:23:04;;;;;;;0.77;0.60;;;;;;;13.33;100.00;101067.66;5053917;28;20468;-54
2023/02/18 00:25:30;;;;;;;2.50;1.53;;;;;;;13.26;100.00;101066.06;5055609;28;20853;-53
2023/02/18 00:27:57;;;;;;;22.10;1.23;;;;;;;13.30;100.00;101073.09;5055911;28;20454;-53
2023/02/18 00:30:23;;;;;;;1.20;0.70;;;;;;;13.31;100.00;101064.16;5055911;28;20435;-53
2023/02/18 00:32:50;;;;;;;2.20;1.33;;;;;;;13.26;100.00;101066.06;5055800;28;20504;-54
2023/02/18 00:35:16;;;;;;;1.00;1.00;;;;;;;13.34;100.00;101065.88;5055374;28;21081;-53
2023/02/18 00:37:43;;;;;;;3.57;0.70;;;;;;;13.34;100.00;101057.88;5054086;28;20457;-53
2023/02/18 00:40:09;;;;;;;0.57;0.50;;;;;;;13.32;100.00;101049.91;5055527;28;20955;-53
2023/02/18 00:42:36;;;;;;;0.57;0.40;;;;;;;13.32;100.00;101044.56;5039882;28;20486;-53
2023/02/18 00:45:03;;;;;;;0.70;0.60;;;;;;;13.37;100.00;101059.56;5055476;28;20528;-53
2023/02/18 00:47:29;;;;;;;0.80;0.70;;;;;;;13.43;100.00;101062.06;5055911;28;20454;-54
2023/02/18 00:49:55;;;;;;;0.60;0.60;;;;;;;13.37;100.00;101064.91;5055376;28;20421;-54
2023/02/18 00:52:22;;;;;;;0.50;0.40;;;;;;;13.31;100.00;101057.97;5055242;28;20454;-53
2023/02/18 00:54:49;;;;;;;0.50;0.43;;;;;;;13.43;100.00;101064.72;5055216;28;20450;-54
2023/02/18 00:57:15;;;;;;;0.57;0.53;;;;;;;13.33;100.00;101066.78;5054267;28;20467;-53
2023/02/18 00:59:42;;;;;;;0.60;0.60;;;;;;;13.27;100.00;101077.63;5055309;28;20425;-53
2023/02/18 01:02:08;;;;;;;3.33;0.67;;;;;;;13.41;100.00;101066.56;5055369;28;20465;-53
2023/02/18 01:04:35;;;;;;;0.90;0.40;;;;;;;13.30;100.00;101058.88;5055188;28;20455;-53
2023/02/18 01:07:01;;;;;;;1.37;0.90;;;;;;;13.27;100.00;101061.59;5055067;28;20866;-53
2023/02/18 01:09:28;;;;;;;0.40;0.30;;;;;;;13.31;100.00;101052.63;5054066;28;20425;-55
2023/02/18 01:11:54;;;;;;;0.67;0.67;;;;;;;13.31;100.00;101058.84;5055075;28;20818;-53
2023/02/18 01:14:21;;;;;;;1.33;0.50;;;;;;;13.36;100.00;101065.81;5059103;28;20420;-53
2023/02/18 01:16:47;;;;;;;0.40;0.33;;;;;;;13.21;100.00;101064.47;5041632;28;20474;-52
2023/02/18 01:19:14;;;;;;;0.43;0.40;;;;;;;13.33;100.00;101074.81;5054861;28;20493;-53
2023/02/18 01:21:40;;;;;;;0.70;0.50;;;;;;;13.38;100.00;101064.88;5047520;28;20429;-53
2023/02/18 01:24:06;;;;;;;0.60;0.40;;;;;;;13.25;100.00;101069.66;5048755;28;20461;-53
2023/02/18 01:26:33;;;;;;;0.63;0.60;;;;;;;13.20;100.00;101060.91;5054860;28;20471;-53
2023/02/18 01:28:59;;;;;;;0.70;0.40;;;;;;;13.26;100.00;101065.19;5057792;28;21029;-53
2023/02/18 01:31:26;;;;;;;0.73;0.50;;;;;;;13.20;100.00;101060.03;5054675;28;20462;-54
2023/02/18 01:33:53;;;;;;;1.17;0.50;;;;;;;13.23;100.00;101057.28;5054470;28;20471;-54
2023/02/18 01:36:19;;;;;;;0.97;0.83;;;;;;;13.25;100.00;101058.97;5054411;28;20573;-53
2023/02/18 01:38:46;;;;;;;0.57;0.40;;;;;;;13.23;100.00;101058.16;5053401;28;20455;-53
2023/02/18 01:41:13;;;;;;;1.20;1.10;;;;;;;13.15;100.00;101046.75;5054610;28;20451;-53
2023/02/18 01:43:39;;;;;;;1.53;0.67;;;;;;;13.18;100.00;101052.06;5054250;28;20461;-53
2023/02/18 01:46:11;;;;;;;0.80;0.60;;;;;;;13.48;99.94;101045.00;5036650;28;20445;-53
2023/02/18 01:48:49;;;;;;;1.20;0.57;;;;;;;13.19;100.00;101048.47;5054140;28;20958;-53
2023/02/18 01:51:34;;;;;;;0.50;0.40;;;;;;;13.26;100.00;101036.69;5048164;28;20454;-53
2023/02/18 01:54:23;;;;;;;0.73;0.60;;;;;;;13.29;100.00;101038.41;5053868;28;20439;-53
2023/02/18 01:56:53;;;;;;;0.53;0.50;;;;;;;13.33;100.00;101042.75;5052673;28;20442;-53
2023/02/18 01:59:26;;;;;;;0.40;0.30;;;;;;;13.23;100.00;101027.91;5052916;28;20793;-53
2023/02/18 02:01:54;;;;;;;0.47;0.40;;;;;;;13.26;100.00;101020.69;5062753;28;20434;-53
2023/02/18 02:04:21;;;;;;;0.70;0.40;;;;;;;13.01;100.00;101009.75;5054040;28;20469;-53
2023/02/18 02:06:48;;;;;;;0.60;0.50;;;;;;;13.13;100.00;101010.34;5060735;28;20446;-53
2023/02/18 02:09:18;;;;;;;0.50;0.40;;;;;;;13.14;100.00;101004.97;5053872;28;20451;-54
2023/02/18 02:12:25;;;;;;;0.40;0.30;;;;;;;13.08;100.00;100998.94;5054218;28;20429;-53
2023/02/18 02:14:54;;;;;;;0.40;0.40;;;;;;;13.04;100.00;100991.03;5053535;28;20821;-53
2023/02/18 02:17:26;;;;;;;1.13;0.70;;;;;;;13.16;100.00;100995.16;5036028;28;20823;-53
2023/02/18 02:20:08;;;;;;;0.67;0.57;;;;;;;13.28;100.00;100988.59;5054209;28;20446;-53
2023/02/18 02:23:07;;;;;;;0.50;0.43;;;;;;;13.32;100.00;100982.28;5051839;28;20482;-53
2023/02/18 02:25:58;;;;;;;0.70;0.50;;;;;;;13.25;100.00;100978.88;5053524;28;20828;-53
2023/02/18 02:29:03;;;;;;;0.73;0.53;;;;;;;13.27;100.00;100976.16;5053545;28;20482;-53
2023/02/18 02:32:06;;;;;;;0.83;0.80;;;;;;;13.06;100.00;100972.28;5031589;28;20554;-53
2023/02/18 02:34:48;;;;;;;0.93;0.53;;;;;;;13.03;100.00;100975.94;5054263;28;20468;-53
2023/02/18 02:37:24;;;;;;;2.47;1.60;;;;;;;13.24;100.00;100971.78;5058477;28;20451;-53
2023/02/18 02:40:06;;;;;;;0.40;0.33;;;;;;;13.10;100.00;100984.63;5059203;28;20451;-54
2023/02/18 02:42:50;;;;;;;0.50;0.43;;;;;;;13.19;100.00;100973.72;5053154;28;20495;-54
2023/02/18 02:45:28;;;;;;;0.40;0.40;;;;;;;13.15;100.00;100979.16;5053459;28;20467;-53
2023/02/18 02:47:59;;;;;;;1.83;0.60;;;;;;;13.13;100.00;100973.84;5053182;28;20417;-54
2023/02/18 02:50:49;;;;;;;1.10;0.40;;;;;;;13.22;100.00;100973.63;5053238;28;20826;-53
2023/02/18 02:53:24;;;;;;;0.53;0.40;;;;;;;13.13;100.00;100971.19;5050858;28;20966;-53
2023/02/18 02:55:50;;;;;;;0.60;0.53;;;;;;;13.10;100.00;100962.41;5053167;28;20441;-54
2023/02/18 02:58:18;;;;;;;1.47;0.70;;;;;;;13.23;100.00;100959.38;5053234;28;20417;-53
2023/02/18 03:00:54;;;;;;;0.50;0.47;;;;;;;13.19;100.00;100965.72;5053020;28;20533;-53
2023/02/18 03:03:45;;;;;;;0.43;0.30;;;;;;;13.23;100.00;100970.03;5052793;28;20456;-54
2023/02/18 03:06:49;;;;;;;0.50;0.40;;;;;;;13.08;100.00;100959.78;5053054;28;20473;-53
2023/02/18 03:09:25;;;;;;;0.90;0.73;;;;;;;13.12;100.00;100964.09;5051393;28;20457;-53
2023/02/18 03:12:33;;;;;;;0.50;0.40;;;;;;;13.03;100.00;100970.59;5052673;28;20443;-53
2023/02/18 03:15:17;;;;;;;0.40;0.30;;;;;;;13.11;100.00;100957.00;5052482;28;20827;-53
2023/02/18 03:18:00;;;;;;;2.37;0.40;;;;;;;13.15;100.00;100956.00;5052639;28;20451;-53
2023/02/18 03:20:29;;;;;;;0.60;0.40;;;;;;;12.85;100.00;100956.84;5052706;28;20657;-53
2023/02/18 03:22:59;;;;;;;0.40;0.30;;;;;;;12.97;100.00;100956.53;5052781;28;20544;-53
2023/02/18 03:25:28;;;;;;;0.40;0.30;;;;;;;13.06;100.00;100953.59;5052429;28;20463;-53
2023/02/18 03:28:00;;;;;;;0.40;0.30;;;;;;;13.07;100.00;100960.69;5051415;28;20441;-53
2023/02/18 03:30:52;;;;;;;0.80;0.40;;;;;;;13.08;100.00;100959.78;5052437;28;20533;-53
2023/02/18 03:33:31;;;;;;;0.30;0.20;;;;;;;13.01;100.00;100968.84;5042310;28;20430;-53
2023/02/18 03:35:57;;;;;;;0.40;0.20;;;;;;;13.08;100.00;100951.75;5072857;22;20472;-50
2023/02/18 03:38:45;;;;;;;0.40;0.30;;;;;;;13.14;100.00;100948.91;5072427;28;20443;-51
2023/02/18 03:41:12;;;;;;;0.30;0.20;;;;;;;12.86;100.00;100947.94;5072236;28;20453;-50
2023/02/18 03:43:40;;;;;;;0.50;0.40;;;;;;;12.99;100.00;100954.69;5072285;28;20497;-51
2023/02/18 03:46:06;;;;;;;0.30;0.20;;;;;;;12.97;100.00;100959.19;5072097;28;20449;-51
2023/02/18 03:48:33;;;;;;;0.40;0.30;;;;;;;12.81;100.00;100953.41;5072212;28;20804;-51
2023/02/18 03:51:00;;;;;;;0.30;0.20;;;;;;;12.91;100.00;100954.03;5071757;28;20515;-52
2023/02/18 03:53:26;;;;;;;0.33;0.20;;;;;;;12.91;100.00;100959.38;5072082;28;20539;-52
2023/02/18 03:55:53;;;;;;;0.30;0.20;;;;;;;12.96;100.00;100958.31;5072028;28;20494;-52
2023/02/18 03:58:19;;;;;;;0.90;0.40;;;;;;;12.90;100.00;100953.16;5072105;28;20916;-52
2023/02/18 04:00:46;;;;;;;0.30;0.20;;;;;;;12.68;100.00;100954.66;5072263;28;20432;-53
2023/02/18 04:03:12;;;;;;;0.30;0.30;;;;;;;12.78;100.00;100949.94;5072044;28;20492;-51
2023/02/18 04:05:39;;;;;;;0.50;0.40;;;;;;;12.64;100.00;100945.84;5071843;28;20448;-52
2023/02/18 04:08:05;;;;;;;0.37;0.30;;;;;;;12.62;100.00;100939.69;5071939;28;20446;-51
2023/02/18 04:10:31;;;;;;;0.40;0.30;;;;;;;12.74;100.00;100931.34;5072320;28;20442;-52
2023/02/18 04:12:58;;;;;;;1.03;0.60;;;;;;;12.65;100.00;100925.41;5072099;28;20420;-51
2023/02/18 04:15:25;;;;;;;0.40;0.30;;;;;;;12.65;100.00;100926.28;5071864;28;20469;-50
2023/02/18 04:17:51;;;;;;;0.40;0.30;;;;;;;12.75;100.00;100933.13;5072034;28;20839;-52
2023/02/18 04:20:18;;;;;;;0.40;0.30;;;;;;;12.81;100.00;100931.19;5071478;28;20913;-52
2023/02/18 04:22:45;;;;;;;0.40;0.30;;;;;;;12.80;100.00;100926.78;5071786;28;20450;-52
2023/02/18 04:25:11;;;;;;;0.40;0.30;;;;;;;12.89;100.00;100923.84;5081054;28;20451;-53
2023/02/18 04:27:37;;;;;;;0.53;0.37;;;;;;;12.88;100.00;100922.06;5076365;28;20424;-52
2023/02/18 04:30:05;;;;;;;1.43;0.30;;;;;;;12.73;100.00;100920.72;5071967;28;20424;-52
2023/02/18 04:32:32;;;;;;;0.40;0.30;;;;;;;12.71;100.00;100923.41;5071635;28;20548;-50
2023/02/18 04:34:58;;;;;;;0.40;0.30;;;;;;;12.70;100.00;100921.66;5071782;28;20454;-48
2023/02/18 04:37:25;;;;;;;0.70;0.40;;;;;;;12.74;100.00;100918.00;5071419;28;20444;-50
2023/02/18 04:39:51;;;;;;;0.50;0.33;;;;;;;12.71;100.00;100912.75;5072004;28;20424;-51
2023/02/18 04:42:18;;;;;;;0.40;0.30;;;;;;;12.71;100.00;100928.75;5071787;28;20449;-51
2023/02/18 04:44:44;;;;;;;1.10;0.40;;;;;;;12.66;100.00;100921.81;5074826;28;20989;-51
2023/02/18 04:47:13;;;;;;;0.40;0.30;;;;;;;12.73;100.00;100926.03;5075189;28;20876;-51
2023/02/18 04:49:39;;;;;;;0.50;0.40;;;;;;;12.84;100.00;100925.75;5075035;28;20454;-50
2023/02/18 04:52:06;;;;;;;0.40;0.30;;;;;;;12.88;100.00;100922.06;5075064;28;20446;-50
2023/02/18 04:54:32;;;;;;;1.43;0.80;;;;;;;12.77;100.00;100929.53;5075538;28;20456;-50
2023/02/18 04:56:59;;;;;;;0.30;0.20;;;;;;;12.73;100.00;100926.03;5075128;28;20903;-51
2023/02/18 04:59:25;;;;;;;0.40;0.30;;;;;;;12.84;100.00;100933.75;5075283;28;20446;-51
2023/02/18 05:01:52;;;;;;;0.60;0.40;;;;;;;12.75;100.00;100929.56;5075009;28;20449;-50
2023/02/18 05:04:18;;;;;;;0.60;0.40;;;;;;;12.70;100.00;100920.78;5074934;28;20819;-50
2023/02/18 05:06:45;;;;;;;1.47;1.37;;;;;;;12.70;100.00;100916.34;5075219;28;20474;-50
2023/02/18 05:09:11;;;;;;;0.60;0.50;;;;;;;12.58;100.00;100915.78;5075368;28;20433;-51
2023/02/18 05:11:38;;;;;;;1.53;0.67;;;;;;;12.70;100.00;100924.34;5074821;28;20979;-51
2023/02/18 05:14:05;;;;;;;0.40;0.30;;;;;;;12.79;99.85;100922.34;5074914;28;20945;-50
2023/02/18 05:16:31;;;;;;;0.50;0.40;;;;;;;12.71;99.71;100922.53;5074683;28;20444;-50
2023/02/18 05:18:58;;;;;;;0.70;0.70;;;;;;;12.67;99.38;100921.75;5074520;28;20456;-51
2023/02/18 05:21:24;;;;;;;0.60;0.60;;;;;;;12.67;99.15;100926.22;5074999;28;20424;-51
2023/02/18 05:23:51;;;;;;;0.57;0.40;;;;;;;12.88;98.51;100920.28;5074775;28;20551;-51
2023/02/18 05:26:18;;;;;;;1.03;0.60;;;;;;;12.84;97.59;100912.41;5088279;28;20557;-51
2023/02/18 05:28:44;;;;;;;2.00;0.77;;;;;;;12.63;98.21;100914.78;5074722;28;20450;-51
2023/02/18 05:31:11;;;;;;;0.70;0.70;;;;;;;12.60;97.99;100920.16;5074171;28;20466;-51
2023/02/18 05:33:37;;;;;;;0.90;0.90;;;;;;;12.55;97.61;100914.09;5074431;28;20525;-50
2023/02/18 05:36:04;;;;;;;0.70;0.70;;;;;;;12.57;97.91;100911.38;5074415;28;20478;-49
2023/02/18 05:38:31;;;;;;;0.60;0.50;;;;;;;12.59;96.47;100925.53;5074393;28;20511;-50
2023/02/18 05:40:57;;;;;;;2.13;0.70;;;;;;;12.58;96.56;100924.66;5074352;28;20435;-49
2023/02/18 05:43:24;;;;;;;0.70;0.40;;;;;;;12.58;96.30;100916.66;5074373;28;20463;-51
2023/02/18 05:45:50;;;;;;;1.40;1.10;;;;;;;12.72;95.36;100908.28;5074272;28;20945;-50
2023/02/18 05:48:17;;;;;;;1.13;0.93;;;;;;;12.62;94.29;100923.69;5074345;28;20431;-51
2023/02/18 05:50:43;;;;;;;0.70;0.70;;;;;;;12.58;94.04;100921.13;5074257;28;20432;-51
2023/02/18 05:53:09;;;;;;;1.30;1.20;;;;;;;12.49;93.77;100906.25;5073953;28;20543;-50
2023/02/18 05:55:37;;;;;;;1.00;0.90;;;;;;;12.48;92.87;100911.66;5073302;28;20470;-49
2023/02/18 05:58:05;;;;;;;0.87;0.87;;;;;;;12.39;93.61;100910.94;5074449;28;20454;-49
2023/02/18 06:00:31;;;;;;;0.70;0.70;;;;;;;12.46;93.53;100901.00;5073930;28;20436;-50
2023/02/18 06:02:58;;;;;;;0.90;0.70;;;;;;;12.53;92.44;100902.59;5073846;28;20898;-50
2023/02/18 06:05:24;;;;;;;1.50;1.40;;;;;;;12.49;92.68;100897.38;5074031;28;20478;-50
2023/02/18 06:07:51;;;;;;;1.20;1.20;;;;;;;12.50;91.86;100912.47;5073650;28;20449;-51
2023/02/18 06:10:20;;;;;;;1.13;1.07;;;;;;;12.43;90.92;100906.41;5069889;28;20815;-50
2023/02/18 06:12:46;;;;;;;0.60;0.50;;;;;;;12.44;91.50;100903.69;5073506;28;20957;-51
2023/02/18 06:15:12;;;;;;;2.30;1.67;;;;;;;12.39;91.36;100908.28;5072225;28;20521;-52
2023/02/18 06:17:39;;;;;;;0.80;0.67;;;;;;;12.41;90.29;100898.44;5070926;28;20938;-51
2023/02/18 06:20:06;;;;;;;1.00;0.90;;;;;;;12.43;90.34;100898.41;5073570;28;20495;-51
2023/02/18 06:22:33;;;;;;;0.60;0.50;;;;;;;12.32;89.98;100897.81;5080850;28;20449;-50
2023/02/18 06:24:59;;;;;;;0.50;0.50;;;;;;;12.36;89.46;100900.38;5081187;28;20463;-50
2023/02/18 06:27:26;;;;;;;0.67;0.67;;;;;;;12.45;89.08;100899.25;5078985;28;20851;-50
2023/02/18 06:29:52;;;;;;;0.97;0.97;;;;;;;12.48;89.50;100900.97;5073290;28;20473;-49
2023/02/18 06:32:18;;;;;;;0.73;0.60;;;;;;;12.44;88.38;100900.16;5073441;28;20978;-52
2023/02/18 06:34:45;;;;;;;5.60;0.97;;;;;;;12.45;88.50;100904.56;5072495;28;20446;-52
2023/02/18 06:37:12;;;;;;;1.97;1.00;;;;;;;12.57;88.50;100906.91;5073023;28;20489;-51
2023/02/18 06:39:39;;;;;;;0.70;0.70;;;;;;;12.53;88.03;100894.59;5073168;28;20450;-52
2023/02/18 06:42:05;;;;;;;0.70;0.63;;;;;;;12.47;88.57;100902.72;5073161;28;20445;-50
2023/02/18 06:44:32;;;;;;;1.87;1.00;;;;;;;12.41;88.50;100894.91;5072992;28;20504;-50
2023/02/18 06:46:58;;;;;;;1.70;1.20;;;;;;;12.39;87.81;100900.28;5072546;28;20982;-51
2023/02/18 06:49:25;;;;;;;0.77;0.67;;;;;;;12.45;87.52;100885.91;5073026;28;20930;-50
2023/02/18 06:51:51;;;;;;;8.70;1.47;;;;;;;12.51;88.24;100895.56;5072870;28;20978;-52
2023/02/18 06:54:18;;;;;;;3.10;1.20;;;;;;;12.31;87.83;100899.59;5073050;28;20450;-51
2023/02/18 06:56:45;;;;;;;1.70;1.60;;;;;;;12.20;86.72;100906.13;5072714;28;20553;-52
2023/02/18 06:59:11;;;;;;;2.33;2.23;;;;;;;12.19;86.76;100902.56;5072820;28;20960;-51
2023/02/18 07:01:37;;;;;;;1.10;1.00;;;;;;;12.31;86.51;100902.25;5072839;28;20428;-51
2023/02/18 07:04:04;;;;;;;1.50;0.67;;;;;;;12.30;86.90;100897.84;5072913;28;20486;-51
2023/02/18 07:06:31;;;;;;;0.73;0.73;;;;;;;12.40;86.84;100887.84;5072739;28;20475;-52
2023/02/18 07:08:57;;;;;;;0.77;0.70;;;;;;;12.48;86.29;100883.19;5072813;28;20454;-51
2023/02/18 07:11:24;;;;;;;0.77;0.77;;;;;;;12.41;86.90;100877.13;5072665;28;20572;-50
2023/02/18 07:13:50;;;;;;;2.50;1.77;;;;;;;12.48;86.60;100885.84;5072616;28;20521;-52
2023/02/18 07:16:17;;;;;;;1.30;1.20;;;;;;;12.47;86.35;100881.41;5072295;28;20536;-52
2023/02/18 07:18:45;;;;;;;1.40;1.30;;;;;;;12.46;86.22;100888.53;5072988;28;20884;-52
2023/02/18 07:21:11;;;;;;;1.17;1.07;;;;;;;12.46;85.92;100882.31;5072685;28;20468;-52
2023/02/18 07:23:37;;;;;;;0.83;0.83;;;;;;;12.35;86.74;100885.28;5072557;28;20454;-52
2023/02/18 07:26:12;;;;;;;1.00;0.93;;;;;;;12.28;87.20;100885.47;5085951;28;20469;-52
2023/02/18 07:28:39;;;;;;;1.80;1.33;;;;;;;12.43;86.09;100887.75;5072789;28;20452;-52
2023/02/18 07:31:06;;;;;;;1.53;1.43;;;;;;;12.35;86.47;100879.09;5072601;28;20425;-53
2023/02/18 07:33:33;;;;;;;1.53;1.43;;;;;;;12.29;87.18;100877.44;5072280;28;20429;-53
2023/02/18 07:36:00;;;;;;;1.17;1.07;;;;;;;12.43;86.25;100871.75;5072453;28;20455;-52
2023/02/18 07:38:28;;;;;;;1.80;1.70;;;;;;;12.36;86.28;100883.50;5072331;28;20474;-51
2023/02/18 07:40:55;;;;;;;1.40;1.30;;;;;;;12.33;86.63;100878.22;5072958;28;20488;-53
2023/02/18 07:43:21;;;;;;;1.53;1.20;;;;;;;12.35;86.37;100882.63;5072928;28;20950;-53
2023/02/18 07:45:48;;;;;;;2.20;0.97;;;;;;;12.27;86.31;100871.28;5072591;28;20497;-53
2023/02/18 07:48:16;;;;;;;1.10;1.00;;;;;;;12.28;86.84;100866.81;5072145;28;20977;-52
2023/02/18 07:50:44;;;;;;;2.73;1.50;;;;;;;12.28;86.48;100870.38;5072212;28;20515;-53
2023/02/18 07:53:12;;;;;;;1.67;1.57;;;;;;;12.28;86.57;100865.03;5072316;28;20457;-52
2023/02/18 07:55:50;;;;;;;14.00;1.37;;;;;;;12.33;86.54;100868.44;5072317;28;20554;-52
2023/02/18 07:58:26;;;;;;;1.63;1.53;;;;;;;12.30;86.93;100873.84;5072442;28;20441;-53
2023/02/18 08:00:54;;;;;;;1.23;0.87;;;;;;;12.45;86.54;100876.13;5072407;28;20420;-53
2023/02/18 08:03:24;;;;;;;1.27;1.17;;;;;;;12.56;86.20;100877.63;5071980;28;20458;-53
2023/02/18 08:05:51;;;;;;;1.47;1.37;;;;;;;12.53;85.20;100873.25;5071726;28;20494;-51
2023/02/18 08:08:21;;;;;;;2.43;2.13;;;;;;;12.52;85.72;100874.19;5072267;28;20442;-53
2023/02/18 08:10:49;;;;;;;1.60;1.10;;;;;;;12.59;85.91;100870.41;5072279;28;20810;-53
2023/02/18 08:13:16;;;;;;;2.50;1.33;;;;;;;12.55;85.32;100858.09;5071845;28;20942;-52
2023/02/18 08:15:42;;;;;;;1.43;1.33;;;;;;;12.47;85.39;100868.06;5071497;28;20466;-53
2023/02/18 08:18:21;;;;;;;1.50;1.40;;;;;;;12.53;86.05;100870.59;5072595;28;20458;-52
2023/02/18 08:20:50;;;;;;;1.40;1.30;;;;;;;12.54;86.12;100863.47;5075980;28;20533;-53
2023/02/18 08:23:21;;;;;;;1.53;1.43;;;;;;;12.69;86.00;100850.56;5076063;28;20438;-53
2023/02/18 08:25:50;;;;;;;1.77;1.07;;;;;;;12.68;84.52;100858.63;5089280;28;21059;-53
2023/02/18 08:28:17;;;;;;;1.40;0.70;;;;;;;12.63;83.15;100861.44;5075502;28;20527;-53
2023/02/18 08:30:48;;;;;;;1.07;0.80;;;;;;;12.70;83.21;100871.00;5075594;28;20837;-53
2023/02/18 08:33:16;;;;;;;1.37;0.90;;;;;;;12.69;83.27;100866.56;5075846;28;20453;-53
2023/02/18 08:35:44;;;;;;;0.90;0.67;;;;;;;12.73;82.35;100864.69;5075300;28;20480;-53
2023/02/18 08:38:11;;;;;;;0.50;0.50;;;;;;;12.82;82.67;100867.09;5075621;28;20467;-54
2023/02/18 08:40:37;;;;;;;0.60;0.50;;;;;;;12.89;82.22;100867.81;5075632;28;20450;-53
2023/02/18 08:43:04;;;;;;;0.40;0.33;;;;;;;12.88;82.24;100874.06;5075391;28;20420;-53
2023/02/18 08:45:30;;;;;;;0.50;0.40;;;;;;;12.91;81.57;100887.31;5075412;28;20497;-53
2023/02/18 08:47:57;;;;;;;0.70;0.50;;;;;;;12.71;81.54;100895.88;5075494;28;20479;-52
2023/02/18 08:50:43;;;;;;;0.50;0.40;;;;;;;12.74;81.37;100885.97;5075151;28;20840;-53
2023/02/18 08:53:09;;;;;;;0.47;0.37;;;;;;;12.77;82.18;100878.84;5075145;28;20473;-52
2023/02/18 08:55:40;;;;;;;0.40;0.30;;;;;;;12.89;81.94;100886.50;5074957;28;20436;-53
2023/02/18 08:58:07;;;;;;;0.40;0.30;;;;;;;12.92;81.61;100883.75;5075179;28;20435;-53
2023/02/18 09:00:34;;;;;;;0.40;0.30;;;;;;;12.81;81.97;100896.50;5075102;28;20417;-52
2023/02/18 09:03:01;;;;;;;1.00;0.50;;;;;;;12.82;80.37;100882.25;5075290;28;20473;-53
2023/02/18 09:05:27;;;;;;;0.40;0.30;;;;;;;12.67;80.80;100876.41;5074686;28;21018;-52
2023/02/18 09:07:54;;;;;;;0.40;0.40;;;;;;;12.82;80.75;100880.44;5075016;28;20421;-53
2023/02/18 09:10:21;;;;;;;0.43;0.43;;;;;;;12.67;81.21;100875.53;5074789;28;20827;-52
2023/02/18 09:12:47;;;;;;;2.83;0.30;;;;;;;12.80;80.07;100879.63;5074902;28;20454;-53
2023/02/18 09:15:14;;;;;;;0.50;0.43;;;;;;;12.73;79.71;100894.91;5075026;28;20453;-53
2023/02/18 09:17:41;;;;;;;0.60;0.50;;;;;;;12.74;79.95;100880.66;5056990;28;20567;-52
2023/02/18 09:20:08;;;;;;;0.60;0.60;;;;;;;12.85;79.62;100887.47;5074469;28;20508;-53
2023/02/18 09:22:34;;;;;;;2.83;1.63;;;;;;;12.71;79.58;100887.88;5074522;28;21022;-53
2023/02/18 09:25:01;;;;;;;0.77;0.60;;;;;;;12.93;79.48;100897.03;5082311;28;20564;-52
2023/02/18 09:27:28;;;;;;;0.67;0.50;;;;;;;13.12;79.13;100901.84;5078352;28;20983;-53
2023/02/18 09:29:54;;;;;;;0.80;0.50;;;;;;;12.90;78.00;100912.25;5073379;28;20868;-52
2023/02/18 09:32:21;;;;;;;0.47;0.43;;;;;;;12.95;79.32;100899.66;5074441;28;20457;-52
2023/02/18 09:35:00;;;;;;;0.40;0.33;;;;;;;12.96;78.53;100902.28;5074271;28;20863;-52
2023/02/18 09:37:27;;;;;;;0.60;0.50;;;;;;;13.11;78.14;100906.28;5074927;28;20513;-48
2023/02/18 09:39:54;;;;;;;5.27;1.00;;;;;;;13.03;78.26;100905.66;5057049;28;20897;-47
2023/02/18 09:42:29;;;;;;;3.37;0.80;;;;;;;12.92;78.28;100902.41;5074983;28;20552;-47
2023/02/18 09:45:00;;;;;;;2.43;0.70;;;;;;;13.01;78.09;100899.47;5074459;28;20562;-47
2023/02/18 09:47:39;;;;;;;0.60;0.50;;;;;;;13.00;79.24;100882.56;5074326;28;20466;-46
2023/02/18 09:50:13;;;;;;;0.60;0.50;;;;;;;12.98;77.96;100895.09;5074162;28;20449;-47
2023/02/18 09:52:40;;;;;;;0.50;0.50;;;;;;;12.91;78.56;100893.53;5074636;28;20541;-46
2023/02/18 09:55:38;;;;;;;0.60;0.47;;;;;;;13.04;78.75;100899.41;5074425;28;20423;-47
2023/02/18 09:58:12;;;;;;;0.50;0.50;;;;;;;13.16;78.32;100903.50;5065876;28;20450;-47
2023/02/18 10:00:45;;;;;;;1.20;0.50;;;;;;;13.03;78.79;100903.00;5061136;28;20811;-47
2023/02/18 10:03:15;;;;;;;1.10;1.00;;;;;;;13.20;78.52;100908.75;5074032;28;20953;-47
2023/02/18 10:05:48;;;;;;;0.40;0.30;;;;;;;13.09;79.12;100907.25;5073939;28;20548;-46
2023/02/18 10:08:21;;;;;;;0.70;0.40;;;;;;;13.05;78.44;100918.03;5074138;28;20421;-48
2023/02/18 10:10:48;;;;;;;0.53;0.40;;;;;;;13.08;78.92;100910.84;5073607;28;20511;-53
2023/02/18 10:13:21;;;;;;;0.70;0.70;;;;;;;13.08;79.34;100918.88;5073796;28;20454;-53
2023/02/18 10:15:49;;;;;;;1.10;1.00;;;;;;;13.17;79.37;100922.16;5073839;28;20931;-53
2023/02/18 10:18:28;;;;;;;0.97;0.80;;;;;;;13.01;80.16;100920.81;5073474;28;20971;-53
2023/02/18 10:21:10;;;;;;;0.40;0.30;;;;;;;13.07;80.32;100914.44;5056357;28;20433;-54
2023/02/18 10:23:41;;;;;;;0.80;0.40;;;;;;;13.01;80.20;100913.69;5073438;28;20474;-54
2023/02/18 10:26:15;;;;;;;0.50;0.40;;;;;;;12.94;80.36;100914.78;5086651;28;20467;-54
2023/02/18 10:28:42;;;;;;;1.20;0.50;;;;;;;12.80;80.97;100903.63;5073609;28;20450;-53
2023/02/18 10:31:14;;;;;;;0.50;0.40;;;;;;;13.07;80.63;100901.09;5073468;28;20453;-52
2023/02/18 10:33:49;;;;;;;0.57;0.57;;;;;;;12.74;81.88;100896.66;5073298;28;20501;-53
2023/02/18 10:36:28;;;;;;;0.50;0.40;;;;;;;12.78;82.09;100901.94;5059928;28;20998;-52
2023/02/18 10:39:32;;;;;;;0.70;0.70;;;;;;;12.77;82.55;100890.38;5072903;28;20452;-53
2023/02/18 10:42:32;;;;;;;0.43;0.30;;;;;;;12.89;82.50;100892.72;5072754;28;20448;-51
2023/02/18 10:45:08;;;;;;;2.50;0.70;;;;;;;12.88;81.58;100892.72;5073280;28;20489;-53
2023/02/18 10:48:13;;;;;;;0.40;0.30;;;;;;;12.98;80.97;100888.88;5073352;28;20857;-53
2023/02/18 10:50:43;;;;;;;6.60;0.50;;;;;;;12.95;82.04;100881.84;4991562;28;20473;-53
2023/02/18 10:53:14;;;;;;;0.40;0.30;;;;;;;12.95;81.07;100891.66;4977762;28;20432;-53
2023/02/18 10:55:44;;;;;;;0.80;0.50;;;;;;;13.07;81.28;100887.75;5020928;28;20474;-51
2023/02/18 10:58:29;;;;;;;0.40;0.30;;;;;;;12.90;81.98;100890.91;5072946;28;20457;-50
2023/02/18 11:00:56;;;;;;;0.60;0.33;;;;;;;13.00;82.03;100884.38;5073043;28;20416;-52
2023/02/18 11:03:40;;;;;;;0.70;0.50;;;;;;;12.94;80.92;100882.78;5072633;28;20446;-52
2023/02/18 11:06:38;;;;;;;5.27;0.67;;;;;;;13.13;80.98;100871.53;5072656;28;20468;-52
2023/02/18 11:09:06;;;;;;;1.70;0.50;;;;;;;13.19;81.32;100879.41;5072427;28;20480;-52
2023/02/18 11:11:36;;;;;;;0.40;0.30;;;;;;;13.18;80.37;100858.97;5072649;28;21029;-51
2023/02/18 11:14:06;;;;;;;0.40;0.30;;;;;;;13.42;80.31;100860.00;5072831;28;20444;-52
2023/02/18 11:16:35;;;;;;;2.77;0.30;;;;;;;13.40;79.34;100854.72;5072411;28;20535;-52
2023/02/18 11:19:03;;;;;;;3.40;0.40;;;;;;;13.28;80.09;100849.75;5072649;28;20567;-51
2023/02/18 11:21:35;;;;;;;4.17;1.03;;;;;;;13.41;79.38;100863.59;5071952;28;20460;-52
2023/02/18 11:24:15;;;;;;;1.50;0.50;;;;;;;13.37;79.07;100838.81;5072868;28;20445;-52
2023/02/18 11:26:45;;;;;;;6.63;1.20;;;;;;;13.43;79.08;100843.97;5060923;28;20853;-53
2023/02/18 11:29:20;;;;;;;5.73;0.87;;;;;;;13.58;78.18;100835.47;5072329;28;20929;-52
2023/02/18 11:31:53;;;;;;;0.40;0.30;;;;;;;13.46;78.14;100837.66;5072515;28;20476;-52
2023/02/18 11:34:25;;;;;;;0.30;0.20;;;;;;;13.48;78.42;100834.00;5072640;28;20536;-52
2023/02/18 11:36:52;;;;;;;2.00;0.87;;;;;;;13.68;77.80;100828.00;5072345;28;20485;-52